Time,TemperatureF,DewpointF,PressureIn,WindDirection,WindDirectionDegrees,WindSpeedMPH,WindSpeedGustMPH,Humidity,HourlyPrecipIn,Conditions,Clouds,dailyrainin,SolarRadiationWatts/m^2,SoftwareType,DateUTC
2013-03-02 00:07:00,35.1,30.0,30.18,NNE,13,1.0,3.0,80,0.00,,,0.00,0,weatherlink.com 1.10,2013-03-02 06:07:00,
2013-03-02 00:22:00,35.3,29.0,30.18,North,9,0.0,2.0,79,0.00,,,0.00,0,weatherlink.com 1.10,2013-03-02 06:22:00,
2013-03-02 00:37:00,35.3,29.0,30.18,NNE,13,0.0,2.0,78,0.00,,,0.00,0,weatherlink.com 1.10,2013-03-02 06:37:00,
2013-03-02 00:52:00,35.1,29.0,30.18,NNE,13,1.0,2.0,77,0.00,,,0.00,0,weatherlink.com 1.10,2013-03-02 06:52:00,
2013-03-02 01:07:00,34.8,28.0,30.19,NNE,13,0.0,2.0,77,0.00,,,0.00,0,weatherlink.com 1.10,2013-03-02 07:07:00,
2013-03-02 01:22:00,34.4,28.0,30.20,NNE,13,2.0,2.0,78,0.00,,,0.00,0,weatherlink.com 1.10,2013-03-02 07:22:00,
2013-03-02 01:37:00,33.8,28.0,30.21,North,9,0.0,4.0,78,0.00,,,0.00,0,weatherlink.com 1.10,2013-03-02 07:37:00,
2013-03-02 01:52:00,33.2,27.0,30.21,NNE,13,0.0,4.0,78,0.00,,,0.00,0,weatherlink.com 1.10,2013-03-02 07:52:00,
2013-03-02 02:07:00,32.7,27.0,30.20,North,9,0.0,0.0,79,0.00,,,0.00,0,weatherlink.com 1.10,2013-03-02 08:07:00,
2013-03-02 02:22:00,32.0,27.0,30.20,NNE,13,0.0,0.0,80,0.00,,,0.00,0,weatherlink.com 1.10,2013-03-02 08:22:00,
2013-03-02 02:37:00,31.4,26.0,30.21,NNE,13,0.0,0.0,81,0.00,,,0.00,0,weatherlink.com 1.10,2013-03-02 08:37:00,
2013-03-02 02:53:00,31.0,26.0,30.21,NNE,13,0.0,0.0,81,0.00,,,0.00,0,weatherlink.com 1.10,2013-03-02 08:53:00,
2013-03-02 03:07:00,30.8,26.0,30.21,NNE,13,0.0,0.0,81,0.00,,,0.00,0,weatherlink.com 1.10,2013-03-02 09:07:00,
2013-03-02 03:22:00,30.9,26.0,30.22,NNE,13,0.0,0.0,82,0.00,,,0.00,0,weatherlink.com 1.10,2013-03-02 09:22:00,
2013-03-02 03:37:00,31.0,26.0,30.22,NNE,13,0.0,1.0,82,0.00,,,0.00,0,weatherlink.com 1.10,2013-03-02 09:37:00,
2013-03-02 03:52:00,30.7,26.0,30.22,NNE,13,0.0,1.0,82,0.00,,,0.00,0,weatherlink.com 1.10,2013-03-02 09:52:00,
2013-03-02 04:22:00,30.7,26.0,30.23,NNE,13,0.0,2.0,82,0.00,,,0.00,0,weatherlink.com 1.10,2013-03-02 10:22:00,
2013-03-02 04:37:00,30.9,26.0,30.24,NNE,13,0.0,0.0,82,0.00,,,0.00,0,weatherlink.com 1.10,2013-03-02 10:37:00,
2013-03-02 04:52:00,30.9,26.0,30.24,NNE,13,0.0,0.0,82,0.00,,,0.00,0,weatherlink.com 1.10,2013-03-02 10:52:00,
2013-03-02 05:07:00,31.0,26.0,30.24,NW,308,0.0,1.0,82,0.00,,,0.00,0,weatherlink.com 1.10,2013-03-02 11:07:00,
2013-03-02 05:22:00,30.9,26.0,30.24,NW,308,0.0,0.0,82,0.00,,,0.00,0,weatherlink.com 1.10,2013-03-02 11:22:00,
2013-03-02 05:37:00,30.9,26.0,30.24,NW,309,0.0,0.0,81,0.00,,,0.00,0,weatherlink.com 1.10,2013-03-02 11:37:00,
2013-03-02 05:52:00,31.1,26.0,30.25,NW,308,0.0,1.0,81,0.00,,,0.00,0,weatherlink.com 1.10,2013-03-02 11:52:00,
2013-03-02 06:07:00,31.6,26.0,30.25,NW,323,0.0,2.0,80,0.00,,,0.00,0,weatherlink.com 1.10,2013-03-02 12:07:00,
2013-03-02 06:22:00,32.2,26.0,30.25,NW,323,0.0,0.0,79,0.00,,,0.00,0,weatherlink.com 1.10,2013-03-02 12:22:00,
2013-03-02 06:37:00,32.6,26.0,30.26,NW,317,2.0,6.0,77,0.00,,,0.00,0,weatherlink.com 1.10,2013-03-02 12:37:00,
2013-03-02 06:52:00,32.2,25.0,30.26,North,4,0.0,4.0,74,0.00,,,0.00,11,weatherlink.com 1.10,2013-03-02 12:52:00,
2013-03-02 07:08:00,31.6,24.0,30.27,NW,321,0.0,4.0,73,0.00,,,0.00,25,weatherlink.com 1.10,2013-03-02 13:08:00,
2013-03-02 07:23:00,31.4,24.0,30.27,NW,325,0.0,1.0,74,0.00,,,0.00,37,weatherlink.com 1.10,2013-03-02 13:23:00,
2013-03-02 07:38:00,31.9,25.0,30.27,North,4,0.0,4.0,74,0.00,,,0.00,49,weatherlink.com 1.10,2013-03-02 13:38:00,
2013-03-02 07:53:00,33.3,24.0,30.28,NW,316,1.0,3.0,70,0.00,,,0.00,216,weatherlink.com 1.10,2013-03-02 13:53:00,
2013-03-02 08:08:00,35.0,25.0,30.29,NW,314,2.0,7.0,66,0.00,,,0.00,121,weatherlink.com 1.10,2013-03-02 14:08:00,
2013-03-02 08:23:00,34.9,25.0,30.29,North,4,4.0,5.0,67,0.00,,,0.00,135,weatherlink.com 1.10,2013-03-02 14:23:00,
2013-03-02 08:38:00,35.1,24.0,30.30,NNE,13,4.0,5.0,65,0.00,,,0.00,156,weatherlink.com 1.10,2013-03-02 14:38:00,
2013-03-02 08:53:00,35.4,24.0,30.30,NNW,329,4.0,10.0,64,0.00,,,0.00,174,weatherlink.com 1.10,2013-03-02 14:53:00,
2013-03-02 09:08:00,35.8,25.0,30.30,NNW,342,1.0,9.0,64,0.00,,,0.00,207,weatherlink.com 1.10,2013-03-02 15:08:00,
2013-03-02 09:23:00,36.5,24.0,30.30,NNW,346,2.0,5.0,62,0.00,,,0.00,232,weatherlink.com 1.10,2013-03-02 15:23:00,
2013-03-02 09:38:00,36.9,25.0,30.30,North,4,5.0,11.0,62,0.00,,,0.00,292,weatherlink.com 1.10,2013-03-02 15:38:00,
2013-03-02 09:53:00,37.5,25.0,30.30,NW,326,5.0,18.0,60,0.00,,,0.00,325,weatherlink.com 1.10,2013-03-02 15:53:00,
2013-03-02 10:09:00,38.0,24.1,30.30,NNW,346,4.0,5.0,57,0.00,,,0.00,334,Wunderground v.1.15,2013-03-02 16:09:00,
2013-03-02 10:14:00,38.2,24.7,30.30,North,359,4.0,5.0,58,0.00,,,0.00,339,Wunderground v.1.15,2013-03-02 16:14:00,
2013-03-02 10:20:00,38.5,24.6,30.30,NW,325,3.0,4.0,57,0.00,,,0.00,276,Wunderground v.1.15,2013-03-02 16:20:00,
2013-03-02 10:26:00,38.4,24.5,30.30,North,9,4.0,5.0,57,0.00,,,0.00,288,Wunderground v.1.15,2013-03-02 16:26:00,
2013-03-02 10:32:00,38.5,24.6,30.30,NNE,23,4.0,6.0,57,0.00,,,0.00,276,Wunderground v.1.15,2013-03-02 16:32:00,
2013-03-02 10:38:00,38.8,24.4,30.30,NNE,14,4.0,6.0,56,0.00,,,0.00,302,Wunderground v.1.15,2013-03-02 16:38:00,
2013-03-02 10:44:00,39.0,24.6,30.30,NNE,28,4.0,8.0,56,0.00,,,0.00,332,Wunderground v.1.15,2013-03-02 16:44:00,
2013-03-02 10:50:00,39.4,24.1,30.30,North,359,4.0,4.0,54,0.00,,,0.00,330,Wunderground v.1.15,2013-03-02 16:50:00,
2013-03-02 10:56:00,40.0,24.7,30.30,NNE,13,2.0,4.0,54,0.00,,,0.00,404,Wunderground v.1.15,2013-03-02 16:56:00,
2013-03-02 11:02:00,40.1,24.3,30.30,NNW,344,3.0,4.0,53,0.00,,,0.00,385,Wunderground v.1.15,2013-03-02 17:02:00,
2013-03-02 11:08:00,40.1,24.3,30.30,North,359,3.0,18.0,53,0.00,,,0.00,364,Wunderground v.1.15,2013-03-02 17:08:00,
2013-03-02 11:14:00,40.7,24.4,30.30,NNE,24,3.0,18.0,52,0.00,,,0.00,408,Wunderground v.1.15,2013-03-02 17:14:00,
2013-03-02 11:24:00,41.1,24.0,30.29,NW,315,2.0,8.0,50,0.00,,,0.00,373,weatherlink.com 1.10,2013-03-02 17:24:00,
2013-03-02 11:39:00,40.9,23.0,30.29,NNE,17,4.0,6.0,50,0.00,,,0.00,450,weatherlink.com 1.10,2013-03-02 17:39:00,
2013-03-02 11:53:00,41.1,24.0,30.29,NE,48,0.0,7.0,50,0.00,,,0.00,1051,weatherlink.com 1.10,2013-03-02 17:53:00,
2013-03-02 12:08:00,43.5,24.0,30.28,NE,43,4.0,7.0,47,0.00,,,0.00,1004,weatherlink.com 1.10,2013-03-02 18:08:00,
2013-03-02 12:23:00,43.5,24.0,30.27,North,353,1.0,7.0,46,0.00,,,0.00,311,weatherlink.com 1.10,2013-03-02 18:23:00,
2013-03-02 12:38:00,43.8,24.0,30.27,NNE,30,4.0,9.0,45,0.00,,,0.00,316,weatherlink.com 1.10,2013-03-02 18:38:00,
2013-03-02 12:53:00,46.1,25.0,30.25,NE,34,2.0,10.0,43,0.00,,,0.00,900,weatherlink.com 1.10,2013-03-02 18:53:00,
2013-03-02 13:08:00,46.1,24.0,30.24,West,281,5.0,8.0,42,0.00,,,0.00,851,weatherlink.com 1.10,2013-03-02 19:08:00,
2013-03-02 13:23:00,45.7,24.0,30.24,NNE,32,7.0,11.0,43,0.00,,,0.00,842,weatherlink.com 1.10,2013-03-02 19:23:00,
2013-03-02 13:38:00,46.6,23.0,30.23,NNW,329,5.0,7.0,40,0.00,,,0.00,803,weatherlink.com 1.10,2013-03-02 19:38:00,
2013-03-02 13:53:00,46.8,23.0,30.23,North,359,4.0,9.0,40,0.00,,,0.00,817,weatherlink.com 1.10,2013-03-02 19:53:00,
2013-03-02 14:08:00,48.4,25.0,30.23,North,353,2.0,6.0,40,0.00,,,0.00,740,weatherlink.com 1.10,2013-03-02 20:08:00,
2013-03-02 14:23:00,47.6,24.0,30.23,NNE,19,0.0,9.0,39,0.00,,,0.00,738,weatherlink.com 1.10,2013-03-02 20:23:00,
2013-03-02 14:53:00,48.2,25.0,30.22,North,4,0.0,7.0,40,0.00,,,0.00,721,weatherlink.com 1.10,2013-03-02 20:53:00,
2013-03-02 15:08:00,47.7,25.0,30.22,NW,310,0.0,7.0,41,0.00,,,0.00,591,weatherlink.com 1.10,2013-03-02 21:08:00,
2013-03-02 15:23:00,48.3,25.0,30.21,ENE,59,6.0,8.0,40,0.00,,,0.00,531,weatherlink.com 1.10,2013-03-02 21:23:00,
2013-03-02 15:38:00,48.1,24.0,30.22,North,4,1.0,11.0,39,0.00,,,0.00,482,weatherlink.com 1.10,2013-03-02 21:38:00,
2013-03-02 15:53:00,47.9,24.0,30.21,NW,317,3.0,5.0,40,0.00,,,0.00,432,weatherlink.com 1.10,2013-03-02 21:53:00,
2013-03-02 16:08:00,48.0,25.0,30.21,NNW,335,1.0,6.0,40,0.00,,,0.00,371,weatherlink.com 1.10,2013-03-02 22:08:00,
2013-03-02 16:23:00,48.1,25.0,30.21,North,4,1.0,9.0,40,0.00,,,0.00,70,weatherlink.com 1.10,2013-03-02 22:23:00,
2013-03-02 16:38:00,47.6,25.0,30.21,NNE,27,1.0,8.0,42,0.00,,,0.00,74,weatherlink.com 1.10,2013-03-02 22:38:00,
2013-03-02 16:53:00,47.3,24.0,30.22,NW,322,0.0,7.0,41,0.00,,,0.00,69,weatherlink.com 1.10,2013-03-02 22:53:00,
2013-03-02 17:09:00,47.3,26.0,30.23,North,4,0.0,4.0,43,0.00,,,0.00,42,weatherlink.com 1.10,2013-03-02 23:09:00,
2013-03-02 17:24:00,46.7,25.0,30.23,NNW,346,1.0,5.0,43,0.00,,,0.00,37,weatherlink.com 1.10,2013-03-02 23:24:00,
2013-03-02 17:39:00,46.2,25.0,30.23,NW,321,1.0,5.0,44,0.00,,,0.00,25,weatherlink.com 1.10,2013-03-02 23:39:00,
2013-03-02 17:54:00,45.4,26.0,30.24,North,352,0.0,4.0,46,0.00,,,0.00,14,weatherlink.com 1.10,2013-03-02 23:54:00,
2013-03-02 18:09:00,44.4,26.0,30.24,WNW,284,0.0,1.0,48,0.00,,,0.00,5,weatherlink.com 1.10,2013-03-03 00:09:00,
2013-03-02 18:24:00,43.2,26.0,30.25,WNW,283,0.0,0.0,51,0.00,,,0.00,0,weatherlink.com 1.10,2013-03-03 00:24:00,
2013-03-02 18:39:00,41.8,27.0,30.25,WNW,284,0.0,0.0,57,0.00,,,0.00,0,weatherlink.com 1.10,2013-03-03 00:39:00,
2013-03-02 18:54:00,40.1,27.0,30.26,WNW,283,0.0,0.0,61,0.00,,,0.00,0,weatherlink.com 1.10,2013-03-03 00:54:00,
2013-03-02 19:09:00,38.5,27.0,30.26,WNW,283,0.0,0.0,63,0.00,,,0.00,0,weatherlink.com 1.10,2013-03-03 01:09:00,
2013-03-02 19:24:00,37.1,27.0,30.26,North,4,0.0,0.0,66,0.00,,,0.00,0,weatherlink.com 1.10,2013-03-03 01:24:00,
2013-03-02 19:39:00,35.9,26.0,30.27,WNW,283,0.0,0.0,68,0.00,,,0.00,0,weatherlink.com 1.10,2013-03-03 01:39:00,
2013-03-02 19:54:00,35.0,26.0,30.27,WNW,283,0.0,0.0,71,0.00,,,0.00,0,weatherlink.com 1.10,2013-03-03 01:54:00,
2013-03-02 20:09:00,34.2,26.0,30.27,WNW,284,0.0,0.0,72,0.00,,,0.00,0,weatherlink.com 1.10,2013-03-03 02:09:00,
2013-03-02 20:24:00,33.2,25.0,30.27,WNW,284,0.0,0.0,73,0.00,,,0.00,0,weatherlink.com 1.10,2013-03-03 02:24:00,
2013-03-02 20:39:00,32.4,25.0,30.27,WNW,283,0.0,0.0,74,0.00,,,0.00,0,weatherlink.com 1.10,2013-03-03 02:39:00,
2013-03-02 20:54:00,31.9,25.0,30.27,WNW,284,0.0,0.0,76,0.00,,,0.00,0,weatherlink.com 1.10,2013-03-03 02:54:00,
2013-03-02 21:09:00,31.5,25.0,30.27,North,4,0.0,0.0,77,0.00,,,0.00,0,weatherlink.com 1.10,2013-03-03 03:09:00,
2013-03-02 21:24:00,30.7,24.0,30.27,WNW,283,0.0,0.0,77,0.00,,,0.00,0,weatherlink.com 1.10,2013-03-03 03:24:00,
2013-03-02 21:39:00,30.1,24.0,30.27,WNW,284,0.0,0.0,78,0.00,,,0.00,0,weatherlink.com 1.10,2013-03-03 03:39:00,
2013-03-02 21:54:00,29.6,24.0,30.27,WNW,283,0.0,0.0,78,0.00,,,0.00,0,weatherlink.com 1.10,2013-03-03 03:54:00,
2013-03-02 22:09:00,29.2,23.0,30.28,WNW,284,0.0,0.0,79,0.00,,,0.00,0,weatherlink.com 1.10,2013-03-03 04:09:00,
2013-03-02 22:24:00,29.0,24.0,30.28,WNW,284,0.0,0.0,80,0.00,,,0.00,0,weatherlink.com 1.10,2013-03-03 04:24:00,
2013-03-02 22:39:00,28.6,23.0,30.27,WNW,284,0.0,0.0,80,0.00,,,0.00,0,weatherlink.com 1.10,2013-03-03 04:39:00,
2013-03-02 22:44:00,28.4,23.0,30.27,North,4,0.0,0.0,80,0.00,,,0.00,0,Wunderground v.1.15,2013-03-03 04:44:00,
2013-03-02 22:55:00,28.2,23.0,30.27,WNW,284,0.0,0.0,81,0.00,,,0.00,0,weatherlink.com 1.10,2013-03-03 04:55:00,
2013-03-02 23:10:00,28.2,23.0,30.26,North,4,0.0,0.0,81,0.00,,,0.00,0,weatherlink.com 1.10,2013-03-03 05:10:00,
2013-03-02 23:24:00,27.8,23.0,30.26,WNW,285,0.0,1.0,81,0.00,,,0.00,0,weatherlink.com 1.10,2013-03-03 05:24:00,
2013-03-02 23:39:00,27.3,22.0,30.26,North,4,0.0,0.0,81,0.00,,,0.00,0,weatherlink.com 1.10,2013-03-03 05:39:00,
2013-03-02 23:55:00,27.1,22.0,30.26,WNW,283,0.0,0.0,82,0.00,,,0.00,0,weatherlink.com 1.10,2013-03-03 05:55:00,